Time;durP1;ratioP1;P1;durP2;ratioP2;P2;SDS_P1;SDS_P2;PMS_P1;PMS_P2;Temp;Humidity;BMP_temperature;BMP_pressure;BME280_temperature;BME280_humidity;BME280_pressure;Samples;Min_cycle;Max_cycle;Signal;HPM_P1;HPM_P2
2021/12/12 00:00:59;;;;;;;27.50;7.25;;;10.50;99.90;;;;;;5034227;28;20022;-65
2021/12/12 00:03:34;;;;;;;32.97;8.30;;;10.50;99.90;;;;;;5026964;28;20044;-65
2021/12/12 00:06:11;;;;;;;15.95;5.75;;;10.60;99.90;;;;;;5024804;28;20029;-66
2021/12/12 00:08:39;;;;;;;23.52;7.35;;;10.70;99.90;;;;;;5032508;28;20049;-65
2021/12/12 00:11:08;;;;;;;17.25;6.18;;;10.70;99.90;;;;;;5016903;28;20033;-65
2021/12/12 00:13:44;;;;;;;15.90;5.55;;;10.70;99.90;;;;;;5033290;28;20420;-66
2021/12/12 00:16:09;;;;;;;8.18;4.50;;;10.70;99.90;;;;;;5021165;28;20555;-65
2021/12/12 00:18:36;;;;;;;10.20;5.30;;;10.90;99.90;;;;;;5020410;28;20040;-64
2021/12/12 00:21:03;;;;;;;9.93;5.25;;;10.80;99.90;;;;;;5024682;28;20032;-64
2021/12/12 00:23:29;;;;;;;12.35;5.00;;;10.90;99.90;;;;;;5034060;28;20040;-64
2021/12/12 00:25:57;;;;;;;19.45;6.85;;;10.80;99.90;;;;;;5031755;28;20025;-65
2021/12/12 00:28:24;;;;;;;12.63;4.75;;;10.80;99.90;;;;;;5018739;28;20387;-64
2021/12/12 00:30:55;;;;;;;16.73;6.88;;;10.90;99.90;;;;;;5021172;28;20133;-65
2021/12/12 00:33:21;;;;;;;15.07;5.78;;;10.80;99.90;;;;;;5026699;28;20028;-64
2021/12/12 00:35:49;;;;;;;12.63;6.03;;;10.90;99.90;;;;;;5031987;28;20486;-65
2021/12/12 00:38:20;;;;;;;22.05;7.78;;;10.80;99.90;;;;;;5018562;28;20964;-65
2021/12/12 00:40:50;;;;;;;11.82;5.53;;;10.80;99.90;;;;;;5031491;28;20025;-65
2021/12/12 00:43:27;;;;;;;9.13;4.90;;;10.80;99.90;;;;;;5033046;28;20030;-65
2021/12/12 00:45:55;;;;;;;21.10;6.97;;;10.90;99.90;;;;;;5022891;28;20028;-66
2021/12/12 00:48:24;;;;;;;10.57;5.45;;;10.90;99.90;;;;;;5026379;28;20080;-65
2021/12/12 00:50:50;;;;;;;11.88;5.65;;;10.90;99.90;;;;;;5031491;28;20017;-65
2021/12/12 00:53:20;;;;;;;13.35;5.07;;;10.90;99.90;;;;;;5018419;28;20498;-64
2021/12/12 00:55:48;;;;;;;24.20;6.38;;;11.20;99.90;;;;;;5031470;28;20022;-64
2021/12/12 00:58:16;;;;;;;11.98;4.60;;;11.00;99.90;;;;;;5020349;28;20487;-65
2021/12/12 01:00:51;;;;;;;10.13;4.05;;;11.00;99.90;;;;;;5029704;28;20036;-63
2021/12/12 01:03:39;;;;;;;8.73;4.68;;;11.20;99.90;;;;;;5027387;28;20080;-64
2021/12/12 01:06:08;;;;;;;15.80;5.40;;;11.00;99.90;;;;;;5024186;28;20076;-65
2021/12/12 01:08:34;;;;;;;9.25;4.70;;;11.10;99.90;;;;;;5033092;28;20041;-64
2021/12/12 01:11:09;;;;;;;16.45;5.25;;;11.10;99.90;;;;;;5031926;28;20029;-65
2021/12/12 01:13:35;;;;;;;17.48;5.05;;;11.10;99.90;;;;;;5017174;28;20018;-65
2021/12/12 01:16:18;;;;;;;18.08;4.68;;;11.00;99.90;;;;;;5020453;28;20561;-64
2021/12/12 01:18:48;;;;;;;14.43;4.95;;;11.10;99.90;;;;;;5029745;28;20049;-65
2021/12/12 01:21:22;;;;;;;11.15;4.57;;;11.10;99.90;;;;;;5033187;28;20018;-64
2021/12/12 01:24:34;;;;;;;8.40;3.55;;;11.10;99.90;;;;;;5033419;28;20028;-65
2021/12/12 01:27:03;;;;;;;20.58;4.97;;;11.20;99.90;;;;;;5032866;28;20079;-64
2021/12/12 01:29:29;;;;;;;17.85;3.55;;;11.10;99.90;;;;;;5033063;28;20029;-65
2021/12/12 01:31:59;;;;;;;23.02;4.55;;;11.30;99.90;;;;;;5034796;28;20034;-66
2021/12/12 01:34:29;;;;;;;8.85;4.10;;;10.90;99.90;;;;;;5020147;28;20505;-65
2021/12/12 01:39:29;;;;;;;14.57;4.43;;;11.00;99.90;;;;;;5030972;28;20090;-65
2021/12/12 01:42:06;;;;;;;6.30;2.70;;;11.00;99.90;;;;;;5034518;28;20375;-66
2021/12/12 01:44:55;;;;;;;8.43;3.28;;;11.10;99.90;;;;;;5023633;28;20033;-65
2021/12/12 01:47:36;;;;;;;5.65;3.00;;;10.90;99.90;;;;;;5012605;28;20033;-65
2021/12/12 01:50:11;;;;;;;12.38;3.05;;;10.90;99.90;;;;;;5013704;28;20049;-65
2021/12/12 01:52:37;;;;;;;39.03;4.53;;;10.90;99.90;;;;;;5013219;28;20030;-65
2021/12/12 01:55:21;;;;;;;14.60;3.03;;;10.80;99.90;;;;;;5014667;28;20053;-65
2021/12/12 01:57:49;;;;;;;4.90;2.72;;;11.00;99.90;;;;;;5014573;28;20040;-65
2021/12/12 02:00:25;;;;;;;9.07;3.25;;;10.90;99.90;;;;;;5014168;28;20026;-65
2021/12/12 02:02:51;;;;;;;5.13;3.10;;;11.00;99.90;;;;;;5014428;28;20600;-65
2021/12/12 02:05:18;;;;;;;4.75;2.92;;;10.80;99.90;;;;;;5012692;28;20425;-64
2021/12/12 02:07:57;;;;;;;8.35;3.55;;;10.90;99.90;;;;;;5012636;28;20041;-66
2021/12/12 02:10:28;;;;;;;6.88;4.32;;;10.90;99.90;;;;;;5014864;28;20049;-65
2021/12/12 02:12:56;;;;;;;5.55;3.30;;;10.90;99.90;;;;;;5012314;28;20386;-65
2021/12/12 02:15:23;;;;;;;8.27;4.38;;;11.00;99.90;;;;;;5012808;28;20038;-64
2021/12/12 02:17:50;;;;;;;7.07;4.38;;;10.90;99.90;;;;;;5013926;28;20105;-65
2021/12/12 02:20:36;;;;;;;7.70;4.30;;;10.80;99.90;;;;;;5014088;28;20033;-65
2021/12/12 02:36:41;;;;;;;10.63;5.50;;;11.00;99.90;;;;;;5032499;28;20501;-65
2021/12/12 02:39:15;;;;;;;11.73;5.35;;;10.80;99.90;;;;;;5031691;28;20029;-65
2021/12/12 02:41:43;;;;;;;9.55;5.13;;;10.90;99.90;;;;;;5022893;28;20025;-65
2021/12/12 02:44:09;;;;;;;12.32;5.20;;;11.00;99.90;;;;;;5034827;28;20021;-63
2021/12/12 02:46:36;;;;;;;8.98;4.47;;;11.00;99.90;;;;;;5034576;28;20040;-65
2021/12/12 02:49:10;;;;;;;7.93;4.78;;;11.10;99.90;;;;;;5035129;28;20064;-65
2021/12/12 02:51:38;;;;;;;11.50;4.97;;;11.00;99.90;;;;;;5035019;28;20035;-63
2021/12/12 02:54:06;;;;;;;16.77;4.63;;;11.30;99.90;;;;;;5032586;28;20559;-64
2021/12/12 02:56:36;;;;;;;10.55;4.60;;;11.30;99.90;;;;;;5035957;28;20029;-65
2021/12/12 02:59:06;;;;;;;7.18;4.35;;;11.10;99.90;;;;;;5033049;28;20032;-65
2021/12/12 03:01:47;;;;;;;7.72;4.47;;;11.10;99.90;;;;;;5034679;28;20042;-65
2021/12/12 03:04:13;;;;;;;20.20;5.50;;;11.10;99.90;;;;;;5022143;28;20537;-65
2021/12/12 03:06:41;;;;;;;18.02;5.93;;;11.10;99.90;;;;;;5022411;28;20049;-64
2021/12/12 03:09:09;;;;;;;16.33;5.70;;;11.00;99.90;;;;;;5022370;28;20046;-65
2021/12/12 03:11:35;;;;;;;22.85;6.65;;;11.00;99.90;;;;;;5021114;28;20117;-63
2021/12/12 03:14:01;;;;;;;17.55;6.90;;;11.00;99.90;;;;;;5017568;28;20026;-65
2021/12/12 03:16:28;;;;;;;24.85;8.75;;;10.90;99.90;;;;;;5035036;28;20432;-65
2021/12/12 03:18:55;;;;;;;31.02;14.68;;;10.90;99.90;;;;;;5023843;28;20413;-65
2021/12/12 03:21:32;;;;;;;66.07;28.45;;;10.90;99.90;;;;;;5028537;28;20030;-64
2021/12/12 03:24:11;;;;;;;115.63;34.85;;;10.90;99.90;;;;;;5035096;28;20489;-65
2021/12/12 03:26:37;;;;;;;122.75;47.63;;;10.80;99.90;;;;;;5033774;28;20029;-64
2021/12/12 03:29:05;;;;;;;105.93;42.63;;;10.90;99.90;;;;;;5017217;28;20087;-65
2021/12/12 03:31:35;;;;;;;65.53;36.20;;;10.90;99.90;;;;;;5034167;28;20108;-65
2021/12/12 03:34:05;;;;;;;48.20;23.70;;;10.90;99.90;;;;;;5023525;28;20525;-65
2021/12/12 03:36:31;;;;;;;58.72;26.27;;;11.00;99.90;;;;;;5029660;28;20025;-64
2021/12/12 03:39:03;;;;;;;24.48;9.35;;;10.90;99.90;;;;;;5031347;28;20024;-65
2021/12/12 03:41:32;;;;;;;24.33;7.75;;;10.90;99.90;;;;;;5032070;28;20048;-65
2021/12/12 03:44:01;;;;;;;38.63;8.80;;;11.00;99.90;;;;;;5033828;28;20029;-65
2021/12/12 03:46:27;;;;;;;33.33;6.78;;;10.90;99.90;;;;;;5017091;28;20037;-65
2021/12/12 03:48:54;;;;;;;11.95;6.00;;;10.80;99.90;;;;;;5032553;28;20068;-65
2021/12/12 03:51:23;;;;;;;16.00;6.30;;;10.90;99.90;;;;;;5028226;28;20022;-65
2021/12/12 03:53:49;;;;;;;28.85;6.95;;;10.90;99.90;;;;;;5022939;28;20017;-64
2021/12/12 03:56:16;;;;;;;29.00;6.72;;;10.90;99.90;;;;;;5034428;28;20395;-65
2021/12/12 03:58:43;;;;;;;18.27;6.00;;;10.90;99.90;;;;;;5032893;28;20406;-65
2021/12/12 04:01:18;;;;;;;12.77;5.75;;;10.80;99.90;;;;;;5021983;28;20568;-64
2021/12/12 04:03:46;;;;;;;22.25;5.30;;;10.90;99.90;;;;;;5031315;28;20033;-63
2021/12/12 04:06:17;;;;;;;42.03;7.55;;;10.90;99.90;;;;;;5032494;28;20029;-65
2021/12/12 04:08:46;;;;;;;29.88;7.60;;;10.80;99.90;;;;;;5033982;28;20573;-64
2021/12/12 04:11:22;;;;;;;77.13;10.13;;;10.70;99.90;;;;;;5016881;28;20032;-65
2021/12/12 04:13:50;;;;;;;67.90;9.48;;;10.80;99.90;;;;;;5029121;28;20033;-64
2021/12/12 04:16:18;;;;;;;57.90;9.00;;;10.80;99.90;;;;;;5033477;28;20120;-64
2021/12/12 04:18:44;;;;;;;19.42;6.70;;;10.80;99.90;;;;;;5033940;28;20462;-64
2021/12/12 04:21:12;;;;;;;28.75;12.38;;;10.80;99.90;;;;;;5033857;28;20087;-65
2021/12/12 04:23:38;;;;;;;135.57;24.23;;;10.80;99.90;;;;;;5032287;28;20028;-64
2021/12/12 04:26:19;;;;;;;104.07;11.45;;;10.70;99.90;;;;;;5016186;28;20042;-64
2021/12/12 04:28:59;;;;;;;44.08;8.93;;;10.80;99.90;;;;;;5027991;28;20033;-64
2021/12/12 04:31:26;;;;;;;94.40;10.43;;;10.80;99.90;;;;;;5016759;28;20479;-64
2021/12/12 04:33:53;;;;;;;122.43;11.10;;;10.70;99.90;;;;;;5020534;28;20056;-65
2021/12/12 04:36:28;;;;;;;110.20;13.23;;;10.80;99.90;;;;;;5026633;28;20029;-64
2021/12/12 04:39:00;;;;;;;94.35;11.30;;;10.70;99.90;;;;;;5033519;28;20022;-64
2021/12/12 04:41:25;;;;;;;68.32;11.45;;;10.70;99.90;;;;;;5033635;28;20029;-65
2021/12/12 04:43:51;;;;;;;145.68;11.30;;;10.70;99.90;;;;;;5031490;28;20017;-65
2021/12/12 04:46:24;;;;;;;100.93;13.35;;;10.70;99.90;;;;;;5033973;28;20021;-64
2021/12/12 04:51:46;;;;;;;115.32;10.60;;;10.80;99.90;;;;;;5033234;28;20418;-63
2021/12/12 04:54:35;;;;;;;102.50;13.52;;;10.70;99.90;;;;;;5032914;28;20029;-64
2021/12/12 04:57:09;;;;;;;85.68;11.73;;;10.80;99.90;;;;;;5033227;28;20022;-64
2021/12/12 05:00:11;;;;;;;48.50;9.75;;;10.70;99.90;;;;;;5033714;28;20029;-64
2021/12/12 05:02:55;;;;;;;97.32;12.45;;;10.70;99.90;;;;;;5019793;28;20056;-64
2021/12/12 05:05:26;;;;;;;43.20;9.20;;;10.70;99.90;;;;;;5017128;28;20033;-64
2021/12/12 05:08:03;;;;;;;48.25;9.35;;;10.80;99.90;;;;;;5031063;28;20026;-64
2021/12/12 05:10:33;;;;;;;91.22;11.57;;;10.80;99.90;;;;;;5016250;28;20050;-64
2021/12/12 05:13:20;;;;;;;89.35;10.98;;;10.70;99.90;;;;;;5031801;28;20108;-64
2021/12/12 05:15:57;;;;;;;53.53;9.50;;;10.80;99.90;;;;;;5032951;28;20029;-62
2021/12/12 05:18:29;;;;;;;45.03;9.00;;;10.60;99.90;;;;;;5033199;28;20029;-64
2021/12/12 05:21:08;;;;;;;50.05;10.00;;;10.60;99.90;;;;;;5030440;28;20030;-64
2021/12/12 05:23:35;;;;;;;58.95;11.73;;;10.50;99.90;;;;;;5019831;28;20071;-64
2021/12/12 05:26:05;;;;;;;44.30;9.82;;;10.40;99.90;;;;;;5031149;28;20490;-64
2021/12/12 05:28:35;;;;;;;75.35;11.35;;;10.20;99.90;;;;;;5032987;28;20025;-64
2021/12/12 05:31:04;;;;;;;286.40;15.43;;;10.00;99.90;;;;;;5021481;28;20502;-64
2021/12/12 05:33:31;;;;;;;83.63;10.38;;;9.80;99.90;;;;;;5027693;28;20079;-64
2021/12/12 05:35:57;;;;;;;49.20;8.77;;;9.70;99.90;;;;;;5032851;28;20025;-64
2021/12/12 05:38:26;;;;;;;67.85;10.63;;;9.60;99.90;;;;;;5031477;28;20032;-64
2021/12/12 05:40:52;;;;;;;59.85;10.90;;;9.70;99.90;;;;;;5014917;28;20030;-65
2021/12/12 05:43:18;;;;;;;85.05;12.55;;;9.70;99.90;;;;;;5019695;28;20018;-64
2021/12/12 05:45:46;;;;;;;83.10;11.35;;;9.70;99.90;;;;;;5020238;28;20228;-64
2021/12/12 05:48:12;;;;;;;90.03;11.63;;;9.60;99.90;;;;;;5020042;28;20057;-64
2021/12/12 05:50:41;;;;;;;104.40;13.60;;;9.70;99.90;;;;;;5019427;28;20072;-64
2021/12/12 05:53:08;;;;;;;99.72;12.65;;;9.60;99.90;;;;;;5031396;28;20029;-64
2021/12/12 05:55:36;;;;;;;76.05;10.05;;;9.80;99.90;;;;;;5031888;28;20026;-64
2021/12/12 05:58:09;;;;;;;58.00;9.48;;;9.90;99.90;;;;;;5032942;28;20029;-63
2021/12/12 06:00:45;;;;;;;143.95;14.57;;;10.00;99.90;;;;;;5032715;28;20091;-64
2021/12/12 06:03:14;;;;;;;130.35;14.57;;;9.90;99.90;;;;;;5028140;28;20048;-64
2021/12/12 06:05:40;;;;;;;92.25;11.75;;;9.90;99.90;;;;;;5020511;28;20044;-64
2021/12/12 06:08:07;;;;;;;180.35;13.63;;;9.80;99.90;;;;;;5030901;28;20098;-64
2021/12/12 06:10:38;;;;;;;98.85;13.75;;;9.80;99.90;;;;;;5016588;28;20041;-64
2021/12/12 06:13:09;;;;;;;75.28;11.52;;;9.90;99.90;;;;;;5032062;28;20032;-64
2021/12/12 06:15:35;;;;;;;35.85;9.40;;;9.80;99.90;;;;;;5032803;28;20022;-65
2021/12/12 06:18:02;;;;;;;42.17;8.55;;;10.00;99.90;;;;;;5036086;28;20035;-64
2021/12/12 06:20:29;;;;;;;105.60;11.25;;;10.10;99.90;;;;;;5034838;28;20075;-64
2021/12/12 06:22:56;;;;;;;136.82;15.80;;;9.90;99.90;;;;;;5017856;28;20035;-64
2021/12/12 06:25:23;;;;;;;83.57;16.08;;;9.90;99.90;;;;;;5021707;28;20026;-63
2021/12/12 06:27:49;;;;;;;101.80;15.13;;;9.90;99.90;;;;;;5023807;28;20026;-63
2021/12/12 06:30:18;;;;;;;45.72;11.07;;;9.80;99.90;;;;;;5028453;28;20112;-64
2021/12/12 06:32:46;;;;;;;55.97;10.63;;;9.90;99.90;;;;;;5035998;28;20104;-63
2021/12/12 06:35:12;;;;;;;131.07;14.18;;;10.00;99.90;;;;;;5033712;28;20517;-64
2021/12/12 06:37:40;;;;;;;92.38;10.98;;;9.80;99.90;;;;;;5019199;28;20053;-64
2021/12/12 06:40:09;;;;;;;92.35;12.45;;;9.90;99.90;;;;;;5022566;28;20026;-64
2021/12/12 06:42:35;;;;;;;135.13;16.60;;;9.90;99.90;;;;;;5023101;28;20029;-65
2021/12/12 06:45:03;;;;;;;83.22;11.77;;;9.90;99.90;;;;;;5026424;28;20017;-65
2021/12/12 06:47:31;;;;;;;107.68;12.32;;;10.00;99.90;;;;;;5034470;28;20104;-65
2021/12/12 06:49:59;;;;;;;80.70;11.43;;;9.90;99.90;;;;;;5017406;28;20033;-65
2021/12/12 06:52:25;;;;;;;129.25;15.63;;;10.00;99.90;;;;;;5018589;28;20026;-64
2021/12/12 06:54:52;;;;;;;67.93;9.15;;;10.00;99.90;;;;;;5032773;28;20071;-65
2021/12/12 06:57:19;;;;;;;91.47;12.48;;;10.10;99.90;;;;;;5035787;28;20025;-64
2021/12/12 06:59:47;;;;;;;152.00;11.18;;;10.10;99.90;;;;;;5033563;28;20028;-64
2021/12/12 07:02:13;;;;;;;43.00;7.75;;;10.10;99.90;;;;;;5018439;28;20024;-64
2021/12/12 07:04:41;;;;;;;135.43;12.25;;;10.20;99.90;;;;;;5018641;28;20428;-64
2021/12/12 07:07:09;;;;;;;135.32;11.07;;;10.20;99.90;;;;;;5034813;28;20040;-64
2021/12/12 07:09:36;;;;;;;41.22;7.00;;;10.20;99.90;;;;;;5035010;28;20034;-64
2021/12/12 07:12:07;;;;;;;26.10;6.97;;;10.20;99.90;;;;;;5031889;28;20030;-64
2021/12/12 07:14:34;;;;;;;14.68;5.72;;;10.20;99.90;;;;;;5022516;28;20056;-64
2021/12/12 07:17:00;;;;;;;50.42;33.03;;;10.40;99.90;;;;;;5032895;28;20048;-65
2021/12/12 07:19:27;;;;;;;15.45;8.40;;;10.30;99.90;;;;;;5035076;28;20414;-64
2021/12/12 07:21:53;;;;;;;17.65;6.97;;;10.40;99.90;;;;;;5034914;28;20040;-64
2021/12/12 07:24:22;;;;;;;7.80;5.28;;;10.20;99.90;;;;;;5035392;28;20033;-65
2021/12/12 07:26:48;;;;;;;10.65;6.40;;;10.30;99.90;;;;;;5033503;28;20040;-65
2021/12/12 07:29:14;;;;;;;104.22;43.17;;;10.30;99.90;;;;;;5019204;28;20033;-65
2021/12/12 07:31:42;;;;;;;87.25;42.15;;;10.20;99.90;;;;;;5033286;28;20033;-65
2021/12/12 07:34:11;;;;;;;173.68;74.97;;;10.20;99.90;;;;;;5034423;28;20054;-65
2021/12/12 07:36:44;;;;;;;72.05;37.50;;;10.20;99.90;;;;;;5034497;28;20030;-63
2021/12/12 07:39:13;;;;;;;68.82;28.90;;;10.30;99.90;;;;;;5030314;28;20109;-65
2021/12/12 07:41:42;;;;;;;51.20;20.65;;;10.30;99.90;;;;;;5020039;28;20486;-64
2021/12/12 07:44:11;;;;;;;47.55;21.30;;;10.40;99.90;;;;;;5017417;28;20563;-64
2021/12/12 07:46:37;;;;;;;25.52;11.60;;;10.30;99.90;;;;;;5018212;28;20025;-65
2021/12/12 07:49:05;;;;;;;16.60;8.80;;;10.40;99.90;;;;;;5033364;28;20421;-64
2021/12/12 07:51:32;;;;;;;16.60;8.48;;;10.60;99.90;;;;;;5026909;28;20473;-65
2021/12/12 07:54:01;;;;;;;16.17;7.80;;;10.50;99.90;;;;;;5024861;28;20060;-65
2021/12/12 07:56:32;;;;;;;11.43;7.10;;;10.50;99.90;;;;;;5034473;28;20021;-64
2021/12/12 07:59:00;;;;;;;12.05;6.95;;;10.50;99.90;;;;;;5032312;28;20391;-64
2021/12/12 08:01:26;;;;;;;8.23;6.15;;;10.50;99.90;;;;;;5017534;28;20112;-64
2021/12/12 08:03:54;;;;;;;7.47;6.05;;;10.60;99.90;;;;;;5031814;28;20060;-64
2021/12/12 08:06:21;;;;;;;12.07;7.20;;;10.50;99.90;;;;;;5027982;28;20022;-64
2021/12/12 08:08:47;;;;;;;11.13;6.05;;;10.50;99.90;;;;;;5022755;28;20038;-64
2021/12/12 08:11:26;;;;;;;14.35;7.25;;;10.50;99.90;;;;;;5033195;28;20379;-65
2021/12/12 08:13:52;;;;;;;14.95;7.82;;;10.60;99.90;;;;;;5029694;28;20026;-64
2021/12/12 08:16:19;;;;;;;11.75;7.88;;;10.50;99.90;;;;;;5034299;28;20475;-64
2021/12/12 08:18:45;;;;;;;10.60;7.50;;;10.60;99.90;;;;;;5023106;28;20026;-64
2021/12/12 08:21:12;;;;;;;12.65;7.40;;;10.70;99.90;;;;;;5026143;28;20043;-64
2021/12/12 08:23:41;;;;;;;12.63;7.20;;;10.70;99.90;;;;;;5032602;28;20053;-64
2021/12/12 08:26:09;;;;;;;9.45;6.32;;;10.60;99.90;;;;;;5016760;28;20103;-64
2021/12/12 08:28:35;;;;;;;9.00;6.10;;;10.60;99.90;;;;;;5033036;28;20075;-64
2021/12/12 08:31:01;;;;;;;9.75;5.90;;;10.90;99.90;;;;;;5022428;28;20395;-64
2021/12/12 08:33:28;;;;;;;10.25;5.43;;;10.90;99.90;;;;;;5027508;28;20022;-65
2021/12/12 08:35:54;;;;;;;13.60;6.28;;;11.00;99.90;;;;;;5030783;28;20025;-65
2021/12/12 08:38:20;;;;;;;10.95;5.20;;;11.00;99.90;;;;;;5018714;28;20041;-64
2021/12/12 08:40:50;;;;;;;9.40;5.35;;;11.00;99.90;;;;;;5031983;28;20030;-62
2021/12/12 08:43:19;;;;;;;9.23;5.32;;;11.00;99.90;;;;;;5020880;28;20041;-64
2021/12/12 08:45:54;;;;;;;8.52;5.53;;;11.10;99.90;;;;;;5020567;28;20033;-64
2021/12/12 08:48:22;;;;;;;11.27;5.65;;;11.20;99.90;;;;;;5026455;28;20057;-64
2021/12/12 08:50:51;;;;;;;9.02;5.90;;;11.30;99.90;;;;;;5031962;28;20111;-64
2021/12/12 08:53:19;;;;;;;11.27;6.57;;;11.40;99.90;;;;;;5018185;28;20072;-64
2021/12/12 08:55:49;;;;;;;12.20;6.45;;;11.30;99.90;;;;;;5031945;28;20074;-63
2021/12/12 08:58:28;;;;;;;8.77;5.90;;;11.40;99.90;;;;;;5020435;28;20441;-64
2021/12/12 09:00:59;;;;;;;11.07;6.55;;;11.50;99.90;;;;;;5020461;28;20018;-64
2021/12/12 09:03:34;;;;;;;9.57;6.90;;;11.70;99.90;;;;;;5020595;28;20038;-63
2021/12/12 09:06:00;;;;;;;10.38;7.30;;;11.80;99.90;;;;;;5024037;28;20029;-63
2021/12/12 09:08:37;;;;;;;11.23;6.53;;;11.90;99.90;;;;;;5032770;28;20425;-64
2021/12/12 09:11:25;;;;;;;8.45;4.97;;;12.30;99.90;;;;;;5031932;28;20025;-65
2021/12/12 09:14:09;;;;;;;9.18;5.00;;;12.70;99.90;;;;;;5028127;28;20165;-64
2021/12/12 09:16:43;;;;;;;9.48;4.78;;;12.60;99.90;;;;;;5016474;28;20018;-63
2021/12/12 09:19:38;;;;;;;8.30;5.60;;;12.50;99.90;;;;;;5032607;28;20030;-64
2021/12/12 09:22:11;;;;;;;6.13;4.47;;;11.90;99.90;;;;;;5021071;28;20073;-63
2021/12/12 09:24:44;;;;;;;5.38;3.80;;;12.20;99.90;;;;;;5019720;28;20026;-64
2021/12/12 09:27:28;;;;;;;4.65;3.67;;;12.40;99.90;;;;;;5024751;28;20048;-64
2021/12/12 09:30:02;;;;;;;4.72;3.05;;;12.30;99.90;;;;;;5032597;28;20041;-63
2021/12/12 09:32:43;;;;;;;5.10;3.00;;;12.40;99.90;;;;;;5032930;28;20029;-63
2021/12/12 09:35:29;;;;;;;4.15;3.20;;;12.20;99.90;;;;;;5031829;28;20095;-64
2021/12/12 09:38:03;;;;;;;5.32;4.07;;;11.80;99.90;;;;;;5028692;28;20018;-63
2021/12/12 09:40:29;;;;;;;;;;;12.00;99.90;;;;;;5016366;28;20525;-62
2021/12/12 09:43:15;;;;;;;4.22;3.83;;;12.00;99.90;;;;;;5020595;28;19953;-64
2021/12/12 09:46:28;;;;;;;5.57;3.63;;;11.80;99.90;;;;;;5028744;28;20021;-63
2021/12/12 09:52:30;;;;;;;6.22;3.47;;;11.80;99.90;;;;;;5035909;28;20125;-64
2021/12/12 09:55:08;;;;;;;5.38;3.50;;;12.00;99.90;;;;;;5025220;28;20565;-64
2021/12/12 09:57:40;;;;;;;6.80;3.72;;;11.80;99.90;;;;;;5023584;28;20473;-64
2021/12/12 10:00:18;;;;;;;4.70;2.50;;;12.00;99.90;;;;;;5022897;28;20030;-63
2021/12/12 10:02:49;;;;;;;4.38;3.53;;;12.00;99.90;;;;;;5022959;28;20029;-64
2021/12/12 10:05:15;;;;;;;3.58;2.90;;;12.10;99.90;;;;;;5018942;28;20092;-64
2021/12/12 10:08:02;;;;;;;3.05;2.65;;;12.10;99.90;;;;;;5019067;28;20109;-64
2021/12/12 10:10:32;;;;;;;6.35;2.90;;;12.30;99.90;;;;;;5019476;28;20133;-64
2021/12/12 10:13:01;;;;;;;3.00;2.58;;;12.20;99.90;;;;;;5034205;28;20073;-64
2021/12/12 10:15:28;;;;;;;4.95;3.60;;;12.00;99.90;;;;;;5029447;28;20461;-63
2021/12/12 10:18:05;;;;;;;3.80;2.80;;;12.00;99.90;;;;;;5025436;28;20022;-64
2021/12/12 10:20:47;;;;;;;4.18;2.75;;;12.00;99.90;;;;;;5034740;28;20550;-62
2021/12/12 10:23:15;;;;;;;4.55;2.47;;;12.10;99.90;;;;;;5018049;28;20679;-64
2021/12/12 10:26:04;;;;;;;4.95;2.83;;;11.90;99.90;;;;;;5018422;28;20030;-64
2021/12/12 10:28:41;;;;;;;4.15;2.45;;;12.10;99.90;;;;;;5018269;28;20037;-61
2021/12/12 10:31:25;;;;;;;4.35;2.22;;;12.00;99.90;;;;;;5034591;28;20037;-63
2021/12/12 10:34:02;;;;;;;4.82;2.90;;;11.70;99.90;;;;;;5035983;28;20021;-63
2021/12/12 10:36:37;;;;;;;3.28;2.60;;;11.70;99.90;;;;;;5028099;28;20122;-64
2021/12/12 10:39:11;;;;;;;4.13;2.85;;;11.60;99.90;;;;;;5026004;28;20065;-64
2021/12/12 10:41:46;;;;;;;2.33;2.00;;;11.80;99.90;;;;;;5033671;28;20405;-64
2021/12/12 10:44:34;;;;;;;1.80;1.50;;;11.80;99.90;;;;;;5019107;28;20021;-64
2021/12/12 10:47:36;;;;;;;1.98;1.80;;;12.00;99.90;;;;;;5031959;28;20053;-64
2021/12/12 10:50:11;;;;;;;1.63;1.40;;;12.10;99.90;;;;;;5031628;28;20046;-64
2021/12/12 10:52:51;;;;;;;1.17;1.08;;;12.00;99.90;;;;;;5035028;28;20064;-64
2021/12/12 10:55:30;;;;;;;2.13;1.38;;;11.90;99.90;;;;;;5022121;28;20033;-64
2021/12/12 10:58:09;;;;;;;1.83;1.50;;;11.90;99.90;;;;;;5022440;28;20529;-64
2021/12/12 11:00:42;;;;;;;2.00;1.73;;;11.90;99.90;;;;;;5023015;28;20014;-63
2021/12/12 11:03:22;;;;;;;2.63;2.10;;;11.90;99.90;;;;;;5026729;28;20025;-64
2021/12/12 11:06:10;;;;;;;5.75;3.90;;;11.90;99.90;;;;;;5035432;28;20335;-63
2021/12/12 11:08:46;;;;;;;4.15;1.80;;;12.00;99.90;;;;;;5022285;28;20466;-64
2021/12/12 11:11:17;;;;;;;2.00;1.80;;;12.00;99.90;;;;;;5034805;28;20063;-64
2021/12/12 11:14:07;;;;;;;1.67;1.50;;;11.80;99.90;;;;;;5029480;28;20022;-63
2021/12/12 11:16:48;;;;;;;1.70;1.60;;;11.90;99.90;;;;;;5016956;28;20397;-63
2021/12/12 11:19:26;;;;;;;2.20;1.60;;;12.00;99.90;;;;;;5021059;28;20440;-64
2021/12/12 11:22:04;;;;;;;3.60;2.08;;;12.10;99.90;;;;;;5021138;28;20053;-62
2021/12/12 11:24:39;;;;;;;1.60;1.50;;;11.90;99.90;;;;;;5028352;28;20033;-62
2021/12/12 11:27:28;;;;;;;1.50;1.40;;;12.00;99.90;;;;;;5033195;28;20032;-64
2021/12/12 11:30:00;;;;;;;2.47;1.80;;;11.90;99.90;;;;;;5033717;28;20041;-62
2021/12/12 11:32:35;;;;;;;1.77;1.65;;;12.00;99.90;;;;;;5033743;28;20048;-64
2021/12/12 11:35:03;;;;;;;2.00;1.67;;;12.20;99.90;;;;;;5032576;28;20163;-64
2021/12/12 11:37:56;;;;;;;2.20;2.00;;;11.60;99.90;;;;;;5017216;28;20021;-63
2021/12/12 11:40:41;;;;;;;2.60;2.40;;;11.60;99.90;;;;;;5031904;28;20053;-64
2021/12/12 11:43:25;;;;;;;2.30;2.10;;;11.80;99.90;;;;;;5034125;28;20029;-63
2021/12/12 11:45:57;;;;;;;2.50;2.23;;;11.70;99.90;;;;;;5033704;28;20390;-63
2021/12/12 11:48:45;;;;;;;5.30;2.97;;;11.80;99.90;;;;;;5033625;28;20319;-63
2021/12/12 11:51:18;;;;;;;2.30;2.10;;;12.00;99.90;;;;;;5033624;28;20073;-64
2021/12/12 11:53:50;;;;;;;3.85;2.80;;;11.90;99.90;;;;;;5034122;28;20394;-64
2021/12/12 11:56:24;;;;;;;2.70;2.38;;;11.80;99.90;;;;;;5017222;28;20104;-64
2021/12/12 11:58:50;;;;;;;2.30;1.88;;;11.70;99.90;;;;;;5028330;28;20107;-64
2021/12/12 12:01:28;;;;;;;2.30;2.10;;;11.40;99.90;;;;;;5020936;28;20022;-65
2021/12/12 12:04:12;;;;;;;4.05;2.40;;;11.50;99.90;;;;;;5031144;28;20109;-64
2021/12/12 12:06:56;;;;;;;3.90;2.67;;;11.50;99.90;;;;;;5033674;28;20116;-63
2021/12/12 12:09:46;;;;;;;8.25;5.68;;;11.40;99.90;;;;;;5026967;28;20499;-64
2021/12/12 12:12:14;;;;;;;2.83;2.50;;;11.70;99.90;;;;;;5020594;28;20120;-64
2021/12/12 12:15:01;;;;;;;2.67;1.98;;;11.60;99.90;;;;;;5017561;28;20025;-64
2021/12/12 12:17:55;;;;;;;2.25;1.90;;;11.90;99.90;;;;;;5017814;28;20082;-64
2021/12/12 12:20:44;;;;;;;2.80;2.13;;;12.00;99.90;;;;;;5016607;28;20032;-64
2021/12/12 12:23:43;;;;;;;4.30;2.92;;;12.10;99.90;;;;;;5014960;28;20037;-64
2021/12/12 12:29:27;;;;;;;2.67;2.20;;;12.00;99.90;;;;;;5029691;28;20048;-63
2021/12/12 12:32:05;;;;;;;14.45;9.20;;;11.80;99.90;;;;;;4986155;28;20487;-64
2021/12/12 12:34:58;;;;;;;14.32;10.25;;;11.60;99.90;;;;;;4976305;28;20142;-64
2021/12/12 12:38:00;;;;;;;13.23;7.88;;;11.50;99.90;;;;;;4979096;28;20516;-63
2021/12/12 12:41:11;;;;;;;3.00;2.55;;;11.60;99.90;;;;;;4978509;28;20705;-64
2021/12/12 12:44:13;;;;;;;2.97;2.47;;;11.60;99.90;;;;;;4950926;29;20043;-64
2021/12/12 12:47:16;;;;;;;2.90;2.70;;;11.80;99.90;;;;;;4950880;28;20035;-62
2021/12/12 12:50:19;;;;;;;3.33;2.33;;;11.70;99.90;;;;;;4950591;29;20051;-64
2021/12/12 12:53:10;;;;;;;4.45;3.17;;;11.90;99.90;;;;;;4950972;28;20148;-64
2021/12/12 12:56:00;;;;;;;4.15;3.63;;;11.80;99.90;;;;;;4950063;28;20083;-63
2021/12/12 12:58:34;;;;;;;6.95;4.18;;;11.70;99.90;;;;;;4953527;28;20488;-64
2021/12/12 13:01:16;;;;;;;4.53;3.92;;;11.90;99.90;;;;;;4953344;28;20104;-65
2021/12/12 13:04:20;;;;;;;6.25;5.60;;;11.50;99.90;;;;;;4952650;28;20031;-63
2021/12/12 13:07:11;;;;;;;4.18;3.70;;;11.60;99.90;;;;;;4952114;28;20053;-65
2021/12/12 13:09:45;;;;;;;4.82;4.32;;;11.50;99.90;;;;;;4952304;28;20043;-67
2021/12/12 13:12:43;;;;;;;3.38;2.85;;;11.50;99.90;;;;;;4952463;28;20102;-67
2021/12/12 13:15:45;;;;;;;3.13;2.70;;;11.40;99.90;;;;;;4969331;28;20899;-67
2021/12/12 13:18:46;;;;;;;3.38;2.97;;;11.60;99.90;;;;;;4968883;28;20140;-67
2021/12/12 13:21:22;;;;;;;3.75;3.35;;;11.60;99.90;;;;;;5015930;28;20041;-67
2021/12/12 13:23:55;;;;;;;3.95;3.38;;;11.60;99.90;;;;;;5021556;28;20108;-66
2021/12/12 13:27:03;;;;;;;4.72;3.30;;;11.60;99.90;;;;;;5012565;28;20041;-67
2021/12/12 13:30:05;;;;;;;3.40;3.10;;;11.60;99.90;;;;;;5017070;28;20120;-66
2021/12/12 13:32:46;;;;;;;4.00;3.25;;;11.70;99.90;;;;;;5013860;28;20042;-67
2021/12/12 13:35:29;;;;;;;6.38;4.32;;;11.60;99.90;;;;;;5030099;28;20033;-67
2021/12/12 13:38:11;;;;;;;4.30;3.55;;;11.60;99.90;;;;;;5030817;28;20021;-67